createdAt,value
2019-02-22T00:02:24.280Z,103172.75
2019-02-22T00:04:53.613Z,103171.91
2019-02-22T00:07:22.978Z,103175.80
2019-02-22T00:09:52.304Z,103173.66
2019-02-22T00:12:21.661Z,103175.81
2019-02-22T00:14:50.997Z,103188.86
2019-02-22T00:17:20.329Z,103176.70
2019-02-22T00:19:49.639Z,103164.58
2019-02-22T00:22:19.008Z,103166.72
2019-02-22T00:24:48.364Z,103168.48
2019-02-22T00:27:17.749Z,103179.76
2019-02-22T00:29:47.105Z,103174.14
2019-02-22T00:32:16.440Z,103175.45
2019-02-22T00:34:45.866Z,103183.69
2019-02-22T00:37:15.231Z,103197.14
2019-02-22T00:39:44.549Z,103193.66
2019-02-22T00:42:13.888Z,103190.66
2019-02-22T00:44:43.243Z,103193.69
2019-02-22T00:47:12.563Z,103201.05
2019-02-22T00:49:41.934Z,103202.79
2019-02-22T00:52:11.225Z,103198.48
2019-02-22T00:54:40.567Z,103205.42
2019-02-22T00:57:09.879Z,103206.28
2019-02-22T00:59:39.217Z,103209.34
2019-02-22T01:02:08.602Z,103198.06
2019-02-22T01:04:37.965Z,103205.44
2019-02-22T01:07:07.324Z,103200.66
2019-02-22T01:09:36.660Z,103205.44
2019-02-22T01:12:05.988Z,103194.61
2019-02-22T01:14:35.347Z,103186.80
2019-02-22T01:17:04.680Z,103184.62
2019-02-22T01:19:33.998Z,103176.81
2019-02-22T01:22:03.358Z,103176.81
2019-02-22T01:24:32.716Z,103174.23
2019-02-22T01:27:02.078Z,103170.76
2019-02-22T01:29:31.431Z,103165.98
2019-02-22T01:32:00.783Z,103168.16
2019-02-22T01:34:30.197Z,103167.72
2019-02-22T01:36:59.538Z,103184.63
2019-02-22T01:39:28.852Z,103179.43
2019-02-22T01:41:58.185Z,103188.54
2019-02-22T01:44:27.546Z,103188.13
2019-02-22T01:46:56.913Z,103187.27
2019-02-22T01:49:26.247Z,103185.09
2019-02-22T01:51:55.598Z,103178.17
2019-02-22T01:54:24.959Z,103181.20
2019-02-22T01:56:54.310Z,103183.81
2019-02-22T01:59:23.670Z,103195.12
2019-02-22T02:01:53.007Z,103197.71
2019-02-22T02:04:22.371Z,103195.54
2019-02-22T02:06:51.727Z,103192.98
2019-02-22T02:09:21.060Z,103193.41
2019-02-22T02:11:50.408Z,103183.89
2019-02-22T02:14:19.747Z,103185.17
2019-02-22T02:16:49.117Z,103184.33
2019-02-22T02:19:18.438Z,103183.45
2019-02-22T02:21:47.801Z,103185.19
2019-02-22T02:24:17.157Z,103183.91
2019-02-22T02:26:47.909Z,103193.45
2019-02-22T02:29:17.236Z,103186.95
2019-02-22T02:31:46.564Z,103182.59
2019-02-22T02:34:15.911Z,103183.00
2019-02-22T02:36:45.217Z,103180.41
2019-02-22T02:39:14.565Z,103176.92
2019-02-22T02:41:44.351Z,103182.99
2019-02-22T02:44:13.710Z,103178.23
2019-02-22T02:46:43.077Z,103170.88
2019-02-22T02:49:13.767Z,103169.98
2019-02-22T02:51:43.121Z,103156.97
2019-02-22T02:54:12.439Z,103150.47
2019-02-22T02:56:41.811Z,103144.39
2019-02-22T02:59:11.148Z,103147.45
2019-02-22T03:01:40.482Z,103140.51
2019-02-22T03:04:09.825Z,103139.65
2019-02-22T03:06:52.975Z,103133.98
2019-02-22T03:09:22.327Z,103140.05
2019-02-22T03:11:51.678Z,103152.20
2019-02-22T03:14:21.019Z,103148.74
2019-02-22T03:16:50.345Z,103145.67
2019-02-22T03:19:19.694Z,103143.08
2019-02-22T03:21:49.114Z,103136.14
2019-02-22T03:24:18.460Z,103137.44
2019-02-22T03:26:47.834Z,103133.56
2019-02-22T03:29:17.171Z,103135.73
2019-02-22T03:31:46.546Z,103139.19
2019-02-22T03:34:15.936Z,103130.95
2019-02-22T03:36:45.283Z,103138.33
2019-02-22T03:39:14.603Z,103134.00
2019-02-22T03:41:43.950Z,103138.34
2019-02-22T03:44:13.280Z,103136.16
2019-02-22T03:46:42.638Z,103136.19
2019-02-22T03:49:12.001Z,103137.52
2019-02-22T03:51:41.333Z,103134.47
2019-02-22T03:54:10.686Z,103139.67
2019-02-22T03:56:40.058Z,103147.91
2019-02-22T03:59:09.396Z,103146.19
2019-02-22T04:01:38.759Z,103135.33
2019-02-22T04:04:08.078Z,103139.23
2019-02-22T04:06:37.426Z,103129.28
2019-02-22T04:09:11.279Z,103128.41
2019-02-22T04:11:45.644Z,103127.11
2019-02-22T04:14:11.719Z,103127.54
2019-02-22T04:16:41.027Z,103135.34
2019-02-22T04:19:10.382Z,103135.34
2019-02-22T04:21:39.714Z,103137.11
2019-02-22T04:24:09.080Z,103138.84
2019-02-22T04:26:38.524Z,103144.05
2019-02-22T04:29:07.917Z,103140.14
2019-02-22T04:31:37.227Z,103140.58
2019-02-22T04:34:06.580Z,103150.12
2019-02-22T04:36:35.908Z,103154.45
2019-02-22T04:39:06.114Z,103160.52
2019-02-22T04:41:35.469Z,103165.74
2019-02-22T04:44:04.789Z,103172.67
2019-02-22T04:46:35.897Z,103167.91
2019-02-22T04:49:05.259Z,103174.41
2019-02-22T04:51:34.601Z,103183.94
2019-02-22T04:54:03.951Z,103186.13
2019-02-22T04:56:33.298Z,103189.17
2019-02-22T04:59:02.633Z,103200.46
2019-02-22T05:01:31.962Z,103204.81
2019-02-22T05:04:01.299Z,103207.84
2019-02-22T05:06:30.626Z,103210.03
2019-02-22T05:08:59.973Z,103200.06
2019-02-22T05:11:29.337Z,103208.77
2019-02-22T05:13:58.755Z,103210.94
2019-02-22T05:16:28.113Z,103212.66
2019-02-22T05:18:57.453Z,103212.66
2019-02-22T05:21:26.767Z,103213.53
2019-02-22T05:23:56.126Z,103217.02
2019-02-22T05:26:25.480Z,103218.31
2019-02-22T05:28:54.863Z,103214.43
2019-02-22T05:31:24.190Z,103219.62
2019-02-22T05:33:53.640Z,103217.02
2019-02-22T05:36:22.964Z,103223.52
2019-02-22T05:38:52.326Z,103219.62
2019-02-22T05:41:21.680Z,103221.38
2019-02-22T05:43:51.023Z,103221.80
2019-02-22T05:46:20.344Z,103227.01
2019-02-22T05:48:49.701Z,103232.63
2019-02-22T05:51:19.083Z,103228.30
2019-02-22T05:53:48.374Z,103223.53
2019-02-22T05:56:17.752Z,103231.77
2019-02-22T05:58:47.090Z,103231.33
2019-02-22T06:01:16.448Z,103226.13
2019-02-22T06:03:45.809Z,103218.77
2019-02-22T06:06:15.162Z,103215.29
2019-02-22T06:08:44.477Z,103217.03
2019-02-22T06:11:13.839Z,103204.91
2019-02-22T06:13:43.166Z,103199.70
2019-02-22T06:16:12.518Z,103194.50
2019-02-22T06:18:41.849Z,103191.91
2019-02-22T06:21:11.199Z,103194.50
2019-02-22T06:23:40.533Z,103206.62
2019-02-22T06:26:09.892Z,103218.78
2019-02-22T06:28:39.264Z,103223.98
2019-02-22T06:31:08.593Z,103230.48
2019-02-22T06:33:37.912Z,103235.22
2019-02-22T06:36:07.289Z,103233.08
2019-02-22T06:38:36.620Z,103226.56
2019-02-22T06:41:05.937Z,103241.30
2019-02-22T06:43:35.300Z,103245.62
2019-02-22T06:46:04.633Z,103253.00
2019-02-22T06:48:33.973Z,103261.22
2019-02-22T06:51:04.149Z,103264.69
2019-02-22T06:53:33.463Z,103270.76
2019-02-22T06:56:02.822Z,103275.11
2019-02-22T06:58:32.172Z,103272.05
2019-02-22T07:01:01.506Z,103285.94
2019-02-22T07:03:30.872Z,103295.02
2019-02-22T07:06:00.190Z,103288.52
2019-02-22T07:08:29.555Z,103287.64
2019-02-22T07:11:08.328Z,103285.06
2019-02-22T07:13:37.676Z,103294.14
2019-02-22T07:16:06.995Z,103302.39
2019-02-22T07:18:36.350Z,103308.02
2019-02-22T07:21:05.670Z,103310.19
2019-02-22T07:23:35.024Z,103313.22
2019-02-22T07:26:04.404Z,103308.02
2019-02-22T07:28:33.784Z,103301.92
2019-02-22T07:31:03.147Z,103306.71
2019-02-22T07:33:32.516Z,103308.44
2019-02-22T07:36:01.886Z,103320.55
2019-02-22T07:38:31.291Z,103324.03
2019-02-22T07:41:00.619Z,103325.77
2019-02-22T07:43:29.947Z,103328.37
2019-02-22T07:45:59.316Z,103326.64
2019-02-22T07:48:28.674Z,103324.03
2019-02-22T07:50:58.582Z,103329.67
2019-02-22T07:53:27.945Z,103337.05
2019-02-22T07:55:57.314Z,103337.48
2019-02-22T07:58:26.652Z,103350.89
2019-02-22T08:01:00.595Z,103339.19
2019-02-22T08:03:29.911Z,103339.61
2019-02-22T08:05:59.252Z,103346.14
2019-02-22T08:08:28.592Z,103337.02
2019-02-22T08:10:57.966Z,103336.14
2019-02-22T08:13:27.305Z,103333.96
2019-02-22T08:15:56.703Z,103350.46
2019-02-22T08:18:26.049Z,103356.50
2019-02-22T08:20:55.422Z,103355.22
2019-02-22T08:23:24.801Z,103356.52
2019-02-22T08:25:54.213Z,103366.05
2019-02-22T08:28:23.647Z,103373.85
2019-02-22T08:30:53.074Z,103375.58
2019-02-22T08:33:22.407Z,103381.63
2019-02-22T08:35:51.822Z,103373.40
2019-02-22T08:38:21.174Z,103372.95
2019-02-22T08:40:50.636Z,103386.82
2019-02-22T08:43:30.720Z,103384.23
2019-02-22T08:45:51.088Z,103380.32
2019-02-22T08:48:20.456Z,103373.80
2019-02-22T08:50:49.837Z,103376.83
2019-02-22T08:53:19.260Z,103383.34
2019-02-22T08:55:48.591Z,103386.78
2019-02-22T08:58:18.071Z,103378.52
2019-02-22T09:00:47.510Z,103390.23
2019-02-22T09:03:16.959Z,103403.67
2019-02-22T09:05:46.310Z,103407.14
2019-02-22T09:08:15.659Z,103403.66
2019-02-22T09:10:45.027Z,103393.27
2019-02-22T09:13:14.375Z,103405.83
2019-02-22T09:15:43.698Z,103401.91
2019-02-22T09:18:13.067Z,103406.69
2019-02-22T09:20:42.424Z,103404.94
2019-02-22T09:23:11.788Z,103404.50
2019-02-22T09:25:41.134Z,103403.63
2019-02-22T09:28:10.495Z,103411.45
2019-02-22T09:30:39.877Z,103412.77
2019-02-22T09:33:09.214Z,103408.01
2019-02-22T09:35:38.857Z,103410.17
2019-02-22T09:38:08.473Z,103409.30
2019-02-22T09:40:37.816Z,103403.66
2019-02-22T09:43:07.163Z,103400.20
2019-02-22T09:45:36.498Z,103404.97
2019-02-22T09:48:05.867Z,103407.59
2019-02-22T09:50:35.185Z,103410.20
2019-02-22T09:53:04.533Z,103408.47
2019-02-22T09:55:33.859Z,103410.18
2019-02-22T09:58:03.211Z,103412.78
2019-02-22T10:00:32.621Z,103418.41
2019-02-22T10:03:01.979Z,103413.64
2019-02-22T10:05:31.390Z,103407.55
2019-02-22T10:08:00.732Z,103410.55
2019-02-22T10:10:30.088Z,103414.05
2019-02-22T10:12:59.455Z,103413.59
2019-02-22T10:15:28.778Z,103411.86
2019-02-22T10:17:58.141Z,103416.19
2019-02-22T10:20:27.527Z,103414.88
2019-02-22T10:22:56.840Z,103420.92
2019-02-22T10:25:26.191Z,103409.21
2019-02-22T10:27:55.531Z,103400.50
2019-02-22T10:30:24.923Z,103403.09
2019-02-22T10:32:54.281Z,103402.67
2019-02-22T10:35:23.631Z,103412.65
2019-02-22T10:37:52.969Z,103410.50
2019-02-22T10:40:22.347Z,103412.65
2019-02-22T10:42:51.704Z,103422.63
2019-02-22T10:45:21.036Z,103414.36
2019-02-22T10:47:50.397Z,103413.92
2019-02-22T10:50:19.739Z,103412.17
2019-02-22T10:52:49.078Z,103410.83
2019-02-22T10:55:18.433Z,103413.86
2019-02-22T10:57:47.807Z,103411.22
2019-02-22T11:00:17.325Z,103401.67
2019-02-22T11:02:46.691Z,103398.15
2019-02-22T11:05:16.047Z,103376.41
2019-02-22T11:07:45.371Z,103374.63
2019-02-22T11:10:14.939Z,103390.27
2019-02-22T11:12:44.269Z,103387.61
2019-02-22T11:15:16.171Z,103400.17
2019-02-22T11:17:45.513Z,103404.05
2019-02-22T11:20:14.864Z,103401.42
2019-02-22T11:22:44.216Z,103397.02
2019-02-22T11:25:13.641Z,103404.84
2019-02-22T11:27:42.975Z,103402.20
2019-02-22T11:30:12.789Z,103407.81
2019-02-22T11:32:42.164Z,103407.36
2019-02-22T11:35:11.568Z,103399.94
2019-02-22T11:37:40.883Z,103394.70
2019-02-22T11:40:10.271Z,103388.13
2019-02-22T11:42:39.654Z,103384.62
2019-02-22T11:45:09.076Z,103379.81
2019-02-22T11:47:38.431Z,103377.17
2019-02-22T11:50:08.151Z,103371.03
2019-02-22T11:52:37.501Z,103364.45
2019-02-22T11:55:07.166Z,103366.55
2019-02-22T11:57:36.523Z,103367.33
2019-02-22T12:00:07.851Z,103364.19
2019-02-22T12:02:37.203Z,103356.70
2019-02-22T12:05:06.943Z,103360.55
2019-02-22T12:07:36.438Z,103360.48
2019-02-22T12:10:06.208Z,103345.61
2019-02-22T12:12:35.559Z,103343.33
2019-02-22T12:15:04.949Z,103344.96
2019-02-22T12:17:34.261Z,103345.33
2019-02-22T12:20:03.670Z,103334.76
2019-02-22T12:22:33.035Z,103332.50
2019-02-22T12:25:02.420Z,103330.59
2019-02-22T12:27:31.756Z,103333.09
2019-02-22T12:30:01.144Z,103333.36
2019-02-22T12:32:30.500Z,103331.78
2019-02-22T12:37:33.628Z,103331.08
2019-02-22T12:40:02.995Z,103343.72
2019-02-22T12:42:33.432Z,103344.45
2019-02-22T12:45:03.629Z,103351.11
2019-02-22T12:47:33.067Z,103351.11
2019-02-22T12:50:02.440Z,103353.17
2019-02-22T12:52:31.786Z,103349.58
2019-02-22T12:55:01.140Z,103346.43
2019-02-22T12:57:30.485Z,103340.66
2019-02-22T13:00:00.755Z,103340.44
2019-02-22T13:02:30.062Z,103337.12
2019-02-22T13:04:59.438Z,103331.05
2019-02-22T13:07:28.799Z,103331.05
2019-02-22T13:09:58.130Z,103335.86
2019-02-22T13:12:27.564Z,103335.25
2019-02-22T13:14:56.891Z,103335.25
2019-02-22T13:17:30.878Z,103339.25
2019-02-22T13:19:57.327Z,103322.91
2019-02-22T13:22:26.683Z,103322.91
2019-02-22T13:24:56.043Z,103323.08
2019-02-22T13:27:25.378Z,103315.59
2019-02-22T13:29:54.745Z,103311.12
2019-02-22T13:32:24.070Z,103316.22
2019-02-22T13:34:53.453Z,103318.65
2019-02-22T13:37:25.380Z,103322.45
2019-02-22T13:39:53.903Z,103320.48
2019-02-22T13:42:23.258Z,103316.05
2019-02-22T13:44:52.632Z,103317.73
2019-02-22T13:47:22.015Z,103318.22
2019-02-22T13:49:51.365Z,103313.28
2019-02-22T13:52:20.713Z,103299.34
2019-02-22T13:54:50.091Z,103297.36
2019-02-22T13:57:19.434Z,103293.15
2019-02-22T13:59:48.841Z,103287.41
2019-02-22T14:02:18.228Z,103283.69
2019-02-22T14:04:47.585Z,103281.67
2019-02-22T14:07:16.955Z,103279.54
2019-02-22T14:09:46.281Z,103275.81
2019-02-22T14:12:15.679Z,103278.18
2019-02-22T14:14:45.021Z,103279.52
2019-02-22T14:17:14.428Z,103277.50
2019-02-22T14:19:43.774Z,103277.50
2019-02-22T14:22:13.109Z,103286.06
2019-02-22T14:24:42.453Z,103286.06
2019-02-22T14:27:11.811Z,103280.97
2019-02-22T14:29:41.197Z,103285.30
2019-02-22T14:32:10.531Z,103291.67
2019-02-22T14:34:40.771Z,103297.98
2019-02-22T14:37:10.347Z,103301.98
2019-02-22T14:39:39.685Z,103301.98
2019-02-22T14:42:09.075Z,103308.86
2019-02-22T14:44:38.439Z,103308.73
2019-02-22T14:47:07.776Z,103312.97
2019-02-22T14:49:37.130Z,103303.14
2019-02-22T14:52:06.492Z,103303.14
2019-02-22T14:54:35.864Z,103303.86
2019-02-22T14:57:05.208Z,103310.72
2019-02-22T14:59:34.565Z,103298.66
2019-02-22T15:02:03.919Z,103299.72
2019-02-22T15:04:33.292Z,103287.48
2019-02-22T15:07:02.634Z,103289.18
2019-02-22T15:09:32.010Z,103287.80
2019-02-22T15:12:01.343Z,103280.36
2019-02-22T15:14:30.707Z,103270.75
2019-02-22T15:17:14.286Z,103260.19
2019-02-22T15:19:43.623Z,103257.13
2019-02-22T15:22:13.020Z,103247.49
2019-02-22T15:24:42.350Z,103239.84
2019-02-22T15:27:11.710Z,103240.36
2019-02-22T15:29:41.046Z,103242.60
2019-02-22T15:32:10.414Z,103235.80
2019-02-22T15:34:39.766Z,103235.12
2019-02-22T15:37:09.136Z,103245.34
2019-02-22T15:39:38.504Z,103240.31
2019-02-22T15:42:07.857Z,103241.42
2019-02-22T15:44:37.228Z,103243.80
2019-02-22T15:47:11.668Z,103242.23
2019-02-22T15:49:37.675Z,103241.49
2019-02-22T15:52:07.053Z,103239.47
2019-02-22T15:54:36.430Z,103243.08
2019-02-22T15:57:05.766Z,103247.55
2019-02-22T15:59:35.119Z,103250.95
2019-02-22T16:02:04.483Z,103247.41
2019-02-22T16:04:52.773Z,103247.41
2019-02-22T16:07:22.218Z,103241.22
2019-02-22T16:09:51.582Z,103241.22
2019-02-22T16:12:20.960Z,103245.10
2019-02-22T16:14:50.303Z,103254.27
2019-02-22T16:17:19.634Z,103254.38
2019-02-22T16:19:51.455Z,103260.92
2019-02-22T16:22:20.043Z,103269.55
2019-02-22T16:24:49.426Z,103269.55
2019-02-22T16:27:18.749Z,103265.69
2019-02-22T16:29:48.196Z,103264.09
2019-02-22T16:32:17.539Z,103277.47
2019-02-22T16:34:47.201Z,103283.05
2019-02-22T16:37:16.524Z,103283.05
2019-02-22T16:39:45.897Z,103287.89
2019-02-22T16:42:15.256Z,103287.89
2019-02-22T16:44:44.590Z,103295.65
2019-02-22T16:47:13.964Z,103295.65
2019-02-22T16:49:43.331Z,103290.03
2019-02-22T16:52:12.670Z,103285.36
2019-02-22T16:54:42.062Z,103285.36
2019-02-22T16:57:11.398Z,103289.77
2019-02-22T16:59:40.744Z,103293.72
2019-02-22T17:02:10.111Z,103294.31
2019-02-22T17:04:39.472Z,103294.31
2019-02-22T17:07:08.847Z,103295.70
2019-02-22T17:09:38.184Z,103297.56
2019-02-22T17:12:07.765Z,103299.53
2019-02-22T17:14:38.671Z,103304.89
2019-02-22T17:17:08.079Z,103298.06
2019-02-22T17:19:37.494Z,103300.31
2019-02-22T17:22:06.899Z,103300.31
2019-02-22T17:24:36.268Z,103295.21
2019-02-22T17:27:05.639Z,103294.44
2019-02-22T17:29:35.075Z,103293.31
2019-02-22T17:32:04.452Z,103293.31
2019-02-22T17:34:33.936Z,103291.66
2019-02-22T17:37:03.288Z,103291.77
2019-02-22T17:39:32.688Z,103292.25
2019-02-22T17:42:02.078Z,103291.45
2019-02-22T17:44:31.439Z,103286.32
2019-02-22T17:47:00.786Z,103289.00
2019-02-22T17:49:30.180Z,103294.72
2019-02-22T17:51:59.557Z,103288.27
2019-02-22T17:54:28.886Z,103287.44
2019-02-22T17:56:58.244Z,103280.55
2019-02-22T17:59:27.617Z,103281.02
2019-02-22T18:01:57.005Z,103283.67
2019-02-22T18:04:26.341Z,103289.75
2019-02-22T18:06:55.697Z,103284.14
2019-02-22T18:09:25.045Z,103278.97
2019-02-22T18:11:54.421Z,103285.05
2019-02-22T18:14:23.766Z,103290.74
2019-02-22T18:16:53.128Z,103299.00
2019-02-22T18:19:22.503Z,103302.05
2019-02-22T18:21:51.831Z,103302.52
2019-02-22T18:24:21.180Z,103301.23
2019-02-22T18:26:51.619Z,103299.50
2019-02-22T18:29:20.995Z,103305.16
2019-02-22T18:31:50.327Z,103305.17
2019-02-22T18:34:20.095Z,103305.19
2019-02-22T18:36:49.426Z,103313.01
2019-02-22T18:39:20.441Z,103313.89
2019-02-22T18:41:49.842Z,103314.77
2019-02-22T18:44:19.553Z,103315.20
2019-02-22T18:46:49.175Z,103319.13
2019-02-22T18:49:18.533Z,103316.98
2019-02-22T18:51:48.069Z,103323.06
2019-02-22T18:54:17.417Z,103323.06
2019-02-22T18:56:46.771Z,103316.56
2019-02-22T18:59:16.712Z,103321.34
2019-02-22T19:01:46.032Z,103312.22
2019-02-22T19:04:15.429Z,103314.84
2019-02-22T19:06:44.749Z,103313.98
2019-02-22T19:09:14.107Z,103313.55
2019-02-22T19:11:43.473Z,103314.00
2019-02-22T19:14:12.839Z,103315.72
2019-02-22T19:16:42.213Z,103324.41
2019-02-22T19:19:14.171Z,103326.59
2019-02-22T19:21:42.677Z,103327.02
2019-02-22T19:24:12.018Z,103322.27
2019-02-22T19:26:41.421Z,103322.25
2019-02-22T19:29:10.888Z,103319.66
2019-02-22T19:31:40.219Z,103318.34
2019-02-22T19:34:09.622Z,103323.55
2019-02-22T19:36:38.938Z,103322.70
2019-02-22T19:39:08.714Z,103317.94
2019-02-22T19:41:38.194Z,103320.11
2019-02-22T19:44:07.574Z,103317.92
2019-02-22T19:46:36.894Z,103318.81
2019-02-22T19:49:06.248Z,103307.11
2019-02-22T19:51:35.680Z,103317.08
2019-02-22T19:54:04.995Z,103308.84
2019-02-22T19:56:34.348Z,103312.30
2019-02-22T19:59:03.690Z,103307.56
2019-02-22T20:01:33.010Z,103310.15
2019-02-22T20:04:02.363Z,103305.39
2019-02-22T20:06:31.677Z,103300.17
2019-02-22T20:09:01.026Z,103303.23
2019-02-22T20:11:30.400Z,103301.06
2019-02-22T20:13:59.735Z,103298.91
2019-02-22T20:16:29.069Z,103302.80
2019-02-22T20:18:58.426Z,103308.02
2019-02-22T20:21:27.841Z,103305.83
2019-02-22T20:23:57.137Z,103302.81
2019-02-22T20:26:26.470Z,103303.67
2019-02-22T20:28:55.839Z,103298.47
2019-02-22T20:31:25.212Z,103298.48
2019-02-22T20:33:54.563Z,103291.11
2019-02-22T20:36:28.544Z,103288.95
2019-02-22T20:38:54.969Z,103290.69
2019-02-22T20:41:24.364Z,103290.26
2019-02-22T20:43:53.691Z,103290.69
2019-02-22T20:46:23.062Z,103287.20
2019-02-22T20:49:00.477Z,103288.95
2019-02-22T20:51:23.478Z,103288.50
2019-02-22T20:53:52.853Z,103278.97
2019-02-22T20:56:22.220Z,103276.37
2019-02-22T20:58:51.632Z,103274.66
2019-02-22T21:01:20.998Z,103265.55
2019-02-22T21:03:50.332Z,103259.47
2019-02-22T21:06:19.680Z,103257.33
2019-02-22T21:08:48.996Z,103263.83
2019-02-22T21:11:18.362Z,103261.66
2019-02-22T21:13:47.699Z,103261.21
2019-02-22T21:16:17.030Z,103270.31
2019-02-22T21:18:46.445Z,103271.61
2019-02-22T21:21:15.735Z,103275.11
2019-02-22T21:23:45.097Z,103270.76
2019-02-22T21:26:15.491Z,103271.20
2019-02-22T21:28:44.840Z,103271.63
2019-02-22T21:31:14.170Z,103262.10
2019-02-22T21:33:43.531Z,103261.23
2019-02-22T21:36:12.889Z,103259.91
2019-02-22T21:38:42.245Z,103258.20
2019-02-22T21:41:11.595Z,103252.56
2019-02-22T21:43:40.998Z,103256.02
2019-02-22T21:46:12.614Z,103249.53
2019-02-22T21:48:41.973Z,103260.36
2019-02-22T21:51:11.326Z,103256.89
2019-02-22T21:53:40.678Z,103255.61
2019-02-22T21:56:10.045Z,103257.33
2019-02-22T21:58:39.385Z,103260.82
2019-02-22T22:01:08.805Z,103255.18
2019-02-22T22:03:38.114Z,103258.20
2019-02-22T22:06:07.468Z,103259.95
2019-02-22T22:08:36.788Z,103259.94
2019-02-22T22:11:06.147Z,103258.66
2019-02-22T22:13:35.480Z,103257.35
2019-02-22T22:16:04.845Z,103257.78
2019-02-22T22:18:38.920Z,103260.80
2019-02-22T22:21:05.235Z,103269.91
2019-02-22T22:23:34.597Z,103267.73
2019-02-22T22:26:03.928Z,103263.83
2019-02-22T22:28:33.278Z,103261.23
2019-02-22T22:31:02.632Z,103253.89
2019-02-22T22:33:31.981Z,103261.25
2019-02-22T22:36:01.325Z,103263.41
2019-02-22T22:38:30.661Z,103264.30
2019-02-22T22:41:00.010Z,103260.82
2019-02-22T22:43:29.392Z,103258.23
2019-02-22T22:45:58.757Z,103260.37
2019-02-22T22:48:28.115Z,103256.50
2019-02-22T22:50:57.432Z,103249.55
2019-02-22T22:53:26.803Z,103240.90
2019-02-22T22:55:56.163Z,103236.13
2019-02-22T22:58:25.876Z,103230.95
2019-02-22T23:01:05.900Z,103231.80
2019-02-22T23:03:35.894Z,103230.52
2019-02-22T23:06:05.919Z,103229.20
2019-02-22T23:08:35.266Z,103236.59
2019-02-22T23:11:04.812Z,103222.28
2019-02-22T23:13:34.141Z,103228.34
2019-02-22T23:16:03.636Z,103224.45
2019-02-22T23:18:32.963Z,103230.95
2019-02-22T23:21:02.283Z,103222.30
2019-02-22T23:23:31.637Z,103224.89
2019-02-22T23:26:00.987Z,103221.42
2019-02-22T23:28:30.319Z,103227.48
2019-02-22T23:30:59.667Z,103223.15
2019-02-22T23:33:29.027Z,103224.45
2019-02-22T23:36:00.216Z,103222.29
2019-02-22T23:38:29.616Z,103220.14
2019-02-22T23:40:58.963Z,103214.94
2019-02-22T23:43:28.347Z,103214.48
2019-02-22T23:45:57.712Z,103219.67
2019-02-22T23:48:27.070Z,103229.23
2019-02-22T23:50:56.447Z,103224.03
2019-02-22T23:53:25.777Z,103218.84
2019-02-22T23:55:55.136Z,103213.63
2019-02-22T23:58:24.465Z,103220.12
